ドバイ の空港の天気 - METARとTAF

ドバイ国際空港 ( OMDB / DXB ) - アラブ首長国連邦 ドバイ
飛行場実況気象(Metar)
観測時間08/22 20:00 GST (08/22 16:00 UTC)
風向・風速北北東 3m/s
視程10km以上
天気現象
なし
気温37℃
湿度47%
気圧1001hPa
METAROMDB 221600Z 03005KT 360V110 CAVOK 37/24 Q1001 NOSIG
過去の天気等 Google飛行場航空写真 Wunderground天気予報

過去48時間のMETAR

飛行場予報(TAF)
発表時間: 8/22 15:04 GST (8/22 11:04 UTC)
予報対象時間: 22日16時 GST ~ 23日22時 GST
風向・風速北 7m/s
視程9000m
なし
22日19時 GST ~ 22日21時 GST に徐々に
風向・風速東北東 3m/s
23日7時 GST ~ 23日9時 GST に徐々に
風向・風速南東 5m/s
23日13時 GST ~ 23日15時 GST に徐々に
風向・風速北 7m/s
23日14時 GST ~ 23日19時 GST に 確率 30% で一時的に
風向・風速不定 10m/s 瞬間風速 15m/s
視程3000m
天気現象高い風塵
少しの積乱雲 雲底高度 1220m
23日19時 GST ~ 23日21時 GST に徐々に
風向・風速東北東 3m/s
TAF OMDB 221104Z 2212/2318 35014KT 9000 NSC
BECMG 2215/2217 07005KT
BECMG 2303/2305 14010KT
BECMG 2309/2311 35013KT
PROB30 TEMPO 2310/2315 VRB20G30KT 3000 BLDU FEW040CB
BECMG 2315/2317 07005KT